MSC Fabiola — A8VL5 — position and weather

sailwx.info

Track history (hours):
 
Tides and Currents Weather Stations Pressure Air Temp Water Temp Dewpoint Dewpoint Depression Visibility Wind Speed Wind Dir Waves Ship Positions

MSC Fabiola

Last reported at 2014-Oct-31 17:32 UTC. Time now 2014-Oct-31 18:03 UTC.
Position N 51°55' E 003°31'.

Length 366 m; draft 13.6 m.

Type: Ship. MMSI: 636092019.

Date/timePositionNaut miles runAvg speedWind from/ knotsBaromVisibWave heightAir tempDewpointWater temp
2014-Oct-31 17:32N 51°55' E 003°31'3 3.0
2014-Oct-31 16:33N 51°55' E 003°26'1111.2
2014-Oct-31 15:33N 51°52' E 003°09'1010.5
2014-Oct-31 14:33N 51°49' E 002°53'9 8.7
2014-Oct-31 13:33N 51°46' E 002°39'8 7.8
2014-Oct-31 12:33N 51°41' E 002°31'8 8.4
2014-Oct-31 11:34N 51°35' E 002°22'1111.1
2014-Oct-31 10:34N 51°26' E 002°10'8 8.4
2014-Oct-31 09:33N 51°21' E 002°19'1211.7
2014-Oct-31 08:32N 51°23' E 002°38'1313.3
2014-Oct-31 07:34N 51°25' E 002°59'9 9.5
2014-Oct-31 06:33N 51°21' E 003°12'0 0.3
2014-Oct-31 05:20N 51°20' E 003°12'0 0.0
2014-Oct-31 04:32N 51°20' E 003°12'0 0.0
2014-Oct-31 03:29N 51°20' E 003°12'0 0.0
2014-Oct-31 02:29N 51°20' E 003°12'0 0.0
2014-Oct-31 01:29N 51°20' E 003°12'0 0.0
2014-Oct-31 00:32N 51°20' E 003°12'0 0.0
2014-Oct-30 23:29N 51°20' E 003°12'0 0.0
2014-Oct-30 22:17N 51°20' E 003°12'0 0.0
2014-Oct-30 20:29N 51°20' E 003°12'0 0.0
2014-Oct-30 19:32N 51°20' E 003°12'0 0.0
2014-Oct-30 18:32N 51°20' E 003°12'0 0.0
2014-Oct-30 17:29N 51°20' E 003°12'0 0.0
2014-Oct-30 16:32N 51°20' E 003°12'0 0.0
2014-Oct-30 15:32N 51°20' E 003°12'0 0.0
2014-Oct-30 14:32N 51°20' E 003°12'0 0.0
2014-Oct-30 13:32N 51°20' E 003°12'0 0.0
2014-Oct-30 12:32N 51°20' E 003°12'0 0.0
2014-Oct-30 11:32N 51°20' E 003°12'0 0.0
2014-Oct-30 10:32N 51°20' E 003°12'0 0.0
2014-Oct-30 09:32N 51°20' E 003°12'1 1.1
2014-Oct-30 08:33N 51°21' E 003°12'7 6.1
2014-Oct-30 07:27N 51°25' E 003°03'1618.2
2014-Oct-30 06:33N 51°25' E 003°29'1212.1
2014-Oct-30 05:34N 51°21' E 003°47'10 9.7
2014-Oct-30 04:34N 51°23' E 004°03'9 9.1
2014-Oct-30 03:33N 51°21' E 004°17'0 0.1
2014-Oct-30 02:34N 51°21' E 004°17'2 1.8
2014-Oct-30 01:33N 51°19' E 004°19'0 0.0
2014-Oct-30 00:31N 51°19' E 004°19'0 0.0
2014-Oct-29 23:31N 51°19' E 004°19'0 0.0
2014-Oct-29 22:28N 51°19' E 004°19'0 0.0
2014-Oct-29 21:31N 51°19' E 004°19'0 0.0
2014-Oct-29 20:28N 51°19' E 004°19'0 0.0
2014-Oct-29 19:28N 51°19' E 004°19'0 0.0
2014-Oct-29 18:31N 51°19' E 004°19'0 0.0
2014-Oct-29 17:31N 51°19' E 004°19'0 0.0
2014-Oct-29 16:28N 51°19' E 004°19'0 0.0
2014-Oct-29 15:28N 51°19' E 004°19'0 0.0
2014-Oct-29 14:31N 51°19' E 004°19'0 0.0
2014-Oct-29 13:31N 51°19' E 004°19'0 0.0
2014-Oct-29 12:28N 51°19' E 004°19'0 0.0
2014-Oct-29 11:31N 51°19' E 004°19'0 0.0
2014-Oct-29 10:19N 51°19' E 004°19'0 0.0
2014-Oct-29 09:31N 51°19' E 004°19'0 0.0
2014-Oct-29 08:31N 51°19' E 004°19'0 0.0
2014-Oct-29 07:31N 51°19' E 004°19'0 0.0
2014-Oct-29 06:31N 51°19' E 004°19'0 0.0
2014-Oct-29 05:31N 51°19' E 004°19'0 0.0
2014-Oct-29 04:31N 51°19' E 004°19'0 0.0
2014-Oct-29 03:31N 51°19' E 004°19'0 0.0
2014-Oct-29 02:22N 51°19' E 004°19'0 0.0
2014-Oct-29 01:31N 51°19' E 004°19'0 0.0
2014-Oct-29 00:31N 51°19' E 004°19'0 0.0
2014-Oct-28 23:31N 51°19' E 004°19'0 0.0
2014-Oct-28 22:31N 51°19' E 004°19'0 0.0
2014-Oct-28 21:28N 51°19' E 004°19'0 0.0
2014-Oct-28 20:31N 51°19' E 004°19'0 0.0
2014-Oct-28 19:28N 51°19' E 004°19'0 0.0
2014-Oct-28 18:28N 51°19' E 004°19'0 0.0
2014-Oct-28 17:25N 51°19' E 004°19'0 0.0
2014-Oct-28 16:16N 51°19' E 004°19'0 0.0
2014-Oct-28 15:31N 51°19' E 004°19'0 0.0
2014-Oct-28 14:31N 51°19' E 004°19'0 0.0
2014-Oct-28 13:31N 51°19' E 004°19'0 0.0
2014-Oct-28 12:31N 51°19' E 004°19'0 0.0
2014-Oct-28 11:28N 51°19' E 004°19'0 0.0
2014-Oct-28 10:31N 51°19' E 004°19'0 0.0
2014-Oct-28 09:25N 51°19' E 004°19'0 0.0
2014-Oct-28 08:31N 51°19' E 004°19'0 0.0
2014-Oct-28 07:31N 51°19' E 004°19'0 0.0
2014-Oct-28 06:31N 51°19' E 004°19'0 0.0
2014-Oct-28 05:33N 51°19' E 004°19'0 0.0
2014-Oct-28 04:33N 51°19' E 004°19'0 0.4
2014-Oct-28 03:33N 51°19' E 004°19'1 1.4
2014-Oct-28 02:34N 51°21' E 004°17'1 1.0
2014-Oct-28 01:34N 51°21' E 004°16'9 9.4
2014-Oct-28 00:34N 51°25' E 004°02'1111.2
2014-Oct-27 23:34N 51°22' E 003°44'9 9.2
2014-Oct-27 22:33N 51°25' E 003°30'1212.1
2014-Oct-27 21:33N 51°24' E 003°11'1211.9
2014-Oct-27 20:32N 51°25' E 002°52'10 9.8
2014-Oct-27 19:33N 51°22' E 002°38'4 4.1
2014-Oct-27 18:33N 51°22' E 002°31'1717.3
2014-Oct-27 17:33N 51°21' E 002°04'1918.9
2014-Oct-27 16:34N 51°37' E 001°47'1716.5
2014-Oct-27 15:34N 51°52' E 001°37'1212.0
2014-Oct-27 14:33N 51°56' E 001°19'1 0.6
2014-Oct-27 13:30N 51°57' E 001°19'0 0.0
2014-Oct-27 12:33N 51°57' E 001°19'0 0.0
2014-Oct-27 11:33N 51°57' E 001°19'0 0.0
2014-Oct-27 10:33N 51°57' E 001°19'0 0.0
2014-Oct-27 09:33N 51°57' E 001°19'0 0.0
2014-Oct-27 08:33N 51°57' E 001°19'0 0.0
2014-Oct-27 07:33N 51°57' E 001°19'0 0.0
2014-Oct-27 06:34N 51°57' E 001°19'0 0.0
2014-Oct-27 05:33N 51°57' E 001°19'0 0.0
2014-Oct-27 04:33N 51°57' E 001°19'0 0.0
2014-Oct-27 03:33N 51°57' E 001°19'0 0.0
2014-Oct-27 02:33N 51°57' E 001°19'0 0.0
2014-Oct-27 01:33N 51°57' E 001°19'0 0.0
2014-Oct-27 00:33N 51°57' E 001°19'0 0.0
2014-Oct-26 23:33N 51°57' E 001°19'0 0.0
2014-Oct-26 22:33N 51°57' E 001°19'0 0.0
2014-Oct-26 21:33N 51°57' E 001°19'0 0.0
2014-Oct-26 20:30N 51°57' E 001°19'0 0.0
2014-Oct-26 19:33N 51°57' E 001°19'0 0.0
2014-Oct-26 18:33N 51°57' E 001°19'0 0.0
2014-Oct-26 17:33N 51°57' E 001°19'0 0.0
2014-Oct-26 16:33N 51°57' E 001°19'0 0.0
2014-Oct-26 15:33N 51°57' E 001°19'0 0.0
2014-Oct-26 14:33N 51°57' E 001°19'0 0.0
2014-Oct-26 13:33N 51°57' E 001°19'0 0.0
2014-Oct-26 12:33N 51°57' E 001°19'0 0.0
2014-Oct-26 11:33N 51°57' E 001°19'0 0.0
2014-Oct-26 10:34N 51°57' E 001°19'4 4.0
2014-Oct-26 09:33N 51°56' E 001°25'1010.0
2014-Oct-26 08:33N 51°51' E 001°40'7 6.8
2014-Oct-26 07:33N 51°48' E 001°49'1111.3
2014-Oct-26 06:34N 51°37' E 001°50'1111.0
2014-Oct-26 05:33N 51°27' E 001°59'1211.7
2014-Oct-26 04:34N 51°16' E 001°53'1615.6
2014-Oct-26 03:34N 51°03' E 001°39'1514.9
2014-Oct-26 02:33N 50°51' E 001°24'2813.9
2014-Oct-26 00:31N 50°30' E 000°56'9415.7
2014-Oct-25 18:33N 50°03' W 001°25'2217.8
2014-Oct-25 17:20N 49°57' W 001°57'43016.1
2014-Oct-24 14:33N 44°31' W 008°51'1717.1
2014-Oct-24 13:33N 44°16' W 009°02'35817.0
2014-Oct-23 16:31N 38°19' W 009°45'1717.8
2014-Oct-23 15:33N 38°02' W 009°40'1717.5
2014-Oct-23 14:33N 37°45' W 009°36'1717.3
2014-Oct-23 13:33N 37°28' W 009°32'1717.1
2014-Oct-23 12:33N 37°12' W 009°26'1717.2
2014-Oct-23 11:33N 36°55' W 009°20'1916.4
2014-Oct-23 10:25N 36°43' W 009°03'1517.0
2014-Oct-23 09:33N 36°38' W 008°46'1717.1
2014-Oct-23 08:33N 36°33' W 008°26'1717.2
2014-Oct-23 07:33N 36°27' W 008°05'1717.4
2014-Oct-23 06:33N 36°22' W 007°45'10717.4
2014-Oct-23 00:24N 35°57' W 005°35'1417.1
2014-Oct-22 23:34N 36°02' W 005°18'51117.5
2014-Oct-21 18:23N 37°35' E 005°09'1517.6
2014-Oct-21 17:33N 37°35' E 005°28'  
Track history (hours):
 
Tides and Currents Weather Stations Pressure Air Temp Water Temp Dewpoint Dewpoint Depression Visibility Wind Speed Wind Dir Waves Ship Positions

MSC Fabiola

Last reported at 2014-Oct-31 17:32 UTC. Time now 2014-Oct-31 18:03 UTC.
Position N 51°55' E 003°31'.

Length 366 m; draft 13.6 m.

Type: Ship. MMSI: 636092019.

Date/timePositionNaut miles runAvg speedWind from/ knotsBaromVisibWave heightAir tempDewpointWater temp
2014-Oct-31 17:32N 51°55' E 003°31'3 3.0
2014-Oct-31 16:33N 51°55' E 003°26'1111.2
2014-Oct-31 15:33N 51°52' E 003°09'1010.5
2014-Oct-31 14:33N 51°49' E 002°53'9 8.7
2014-Oct-31 13:33N 51°46' E 002°39'8 7.8
2014-Oct-31 12:33N 51°41' E 002°31'8 8.4
2014-Oct-31 11:34N 51°35' E 002°22'1111.1
2014-Oct-31 10:34N 51°26' E 002°10'8 8.4
2014-Oct-31 09:33N 51°21' E 002°19'1211.7
2014-Oct-31 08:32N 51°23' E 002°38'1313.3
2014-Oct-31 07:34N 51°25' E 002°59'9 9.5
2014-Oct-31 06:33N 51°21' E 003°12'0 0.3
2014-Oct-31 05:20N 51°20' E 003°12'0 0.0
2014-Oct-31 04:32N 51°20' E 003°12'0 0.0
2014-Oct-31 03:29N 51°20' E 003°12'0 0.0
2014-Oct-31 02:29N 51°20' E 003°12'0 0.0
2014-Oct-31 01:29N 51°20' E 003°12'0 0.0
2014-Oct-31 00:32N 51°20' E 003°12'0 0.0
2014-Oct-30 23:29N 51°20' E 003°12'0 0.0
2014-Oct-30 22:17N 51°20' E 003°12'0 0.0
2014-Oct-30 20:29N 51°20' E 003°12'0 0.0
2014-Oct-30 19:32N 51°20' E 003°12'0 0.0
2014-Oct-30 18:32N 51°20' E 003°12'0 0.0
2014-Oct-30 17:29N 51°20' E 003°12'0 0.0
2014-Oct-30 16:32N 51°20' E 003°12'0 0.0
2014-Oct-30 15:32N 51°20' E 003°12'0 0.0
2014-Oct-30 14:32N 51°20' E 003°12'0 0.0
2014-Oct-30 13:32N 51°20' E 003°12'0 0.0
2014-Oct-30 12:32N 51°20' E 003°12'0 0.0
2014-Oct-30 11:32N 51°20' E 003°12'0 0.0
2014-Oct-30 10:32N 51°20' E 003°12'0 0.0
2014-Oct-30 09:32N 51°20' E 003°12'1 1.1
2014-Oct-30 08:33N 51°21' E 003°12'7 6.1
2014-Oct-30 07:27N 51°25' E 003°03'1618.2
2014-Oct-30 06:33N 51°25' E 003°29'1212.1
2014-Oct-30 05:34N 51°21' E 003°47'10 9.7
2014-Oct-30 04:34N 51°23' E 004°03'9 9.1
2014-Oct-30 03:33N 51°21' E 004°17'0 0.1
2014-Oct-30 02:34N 51°21' E 004°17'2 1.8
2014-Oct-30 01:33N 51°19' E 004°19'0 0.0
2014-Oct-30 00:31N 51°19' E 004°19'0 0.0
2014-Oct-29 23:31N 51°19' E 004°19'0 0.0
2014-Oct-29 22:28N 51°19' E 004°19'0 0.0
2014-Oct-29 21:31N 51°19' E 004°19'0 0.0
2014-Oct-29 20:28N 51°19' E 004°19'0 0.0
2014-Oct-29 19:28N 51°19' E 004°19'0 0.0
2014-Oct-29 18:31N 51°19' E 004°19'0 0.0
2014-Oct-29 17:31N 51°19' E 004°19'0 0.0
2014-Oct-29 16:28N 51°19' E 004°19'0 0.0
2014-Oct-29 15:28N 51°19' E 004°19'0 0.0
2014-Oct-29 14:31N 51°19' E 004°19'0 0.0
2014-Oct-29 13:31N 51°19' E 004°19'0 0.0
2014-Oct-29 12:28N 51°19' E 004°19'0 0.0
2014-Oct-29 11:31N 51°19' E 004°19'0 0.0
2014-Oct-29 10:19N 51°19' E 004°19'0 0.0
2014-Oct-29 09:31N 51°19' E 004°19'0 0.0
2014-Oct-29 08:31N 51°19' E 004°19'0 0.0
2014-Oct-29 07:31N 51°19' E 004°19'0 0.0
2014-Oct-29 06:31N 51°19' E 004°19'0 0.0
2014-Oct-29 05:31N 51°19' E 004°19'0 0.0
2014-Oct-29 04:31N 51°19' E 004°19'0 0.0
2014-Oct-29 03:31N 51°19' E 004°19'0 0.0
2014-Oct-29 02:22N 51°19' E 004°19'0 0.0
2014-Oct-29 01:31N 51°19' E 004°19'0 0.0
2014-Oct-29 00:31N 51°19' E 004°19'0 0.0
2014-Oct-28 23:31N 51°19' E 004°19'0 0.0
2014-Oct-28 22:31N 51°19' E 004°19'0 0.0
2014-Oct-28 21:28N 51°19' E 004°19'0 0.0
2014-Oct-28 20:31N 51°19' E 004°19'0 0.0
2014-Oct-28 19:28N 51°19' E 004°19'0 0.0
2014-Oct-28 18:28N 51°19' E 004°19'0 0.0
2014-Oct-28 17:25N 51°19' E 004°19'0 0.0
2014-Oct-28 16:16N 51°19' E 004°19'0 0.0
2014-Oct-28 15:31N 51°19' E 004°19'0 0.0
2014-Oct-28 14:31N 51°19' E 004°19'0 0.0
2014-Oct-28 13:31N 51°19' E 004°19'0 0.0
2014-Oct-28 12:31N 51°19' E 004°19'0 0.0
2014-Oct-28 11:28N 51°19' E 004°19'0 0.0
2014-Oct-28 10:31N 51°19' E 004°19'0 0.0
2014-Oct-28 09:25N 51°19' E 004°19'0 0.0
2014-Oct-28 08:31N 51°19' E 004°19'0 0.0
2014-Oct-28 07:31N 51°19' E 004°19'0 0.0
2014-Oct-28 06:31N 51°19' E 004°19'0 0.0
2014-Oct-28 05:33N 51°19' E 004°19'0 0.0
2014-Oct-28 04:33N 51°19' E 004°19'0 0.4
2014-Oct-28 03:33N 51°19' E 004°19'1 1.4
2014-Oct-28 02:34N 51°21' E 004°17'1 1.0
2014-Oct-28 01:34N 51°21' E 004°16'9 9.4
2014-Oct-28 00:34N 51°25' E 004°02'1111.2
2014-Oct-27 23:34N 51°22' E 003°44'9 9.2
2014-Oct-27 22:33N 51°25' E 003°30'1212.1
2014-Oct-27 21:33N 51°24' E 003°11'1211.9
2014-Oct-27 20:32N 51°25' E 002°52'10 9.8
2014-Oct-27 19:33N 51°22' E 002°38'4 4.1
2014-Oct-27 18:33N 51°22' E 002°31'1717.3
2014-Oct-27 17:33N 51°21' E 002°04'1918.9
2014-Oct-27 16:34N 51°37' E 001°47'1716.5
2014-Oct-27 15:34N 51°52' E 001°37'1212.0
2014-Oct-27 14:33N 51°56' E 001°19'1 0.6
2014-Oct-27 13:30N 51°57' E 001°19'0 0.0
2014-Oct-27 12:33N 51°57' E 001°19'0 0.0
2014-Oct-27 11:33N 51°57' E 001°19'0 0.0
2014-Oct-27 10:33N 51°57' E 001°19'0 0.0
2014-Oct-27 09:33N 51°57' E 001°19'0 0.0
2014-Oct-27 08:33N 51°57' E 001°19'0 0.0
2014-Oct-27 07:33N 51°57' E 001°19'0 0.0
2014-Oct-27 06:34N 51°57' E 001°19'0 0.0
2014-Oct-27 05:33N 51°57' E 001°19'0 0.0
2014-Oct-27 04:33N 51°57' E 001°19'0 0.0
2014-Oct-27 03:33N 51°57' E 001°19'0 0.0
2014-Oct-27 02:33N 51°57' E 001°19'0 0.0
2014-Oct-27 01:33N 51°57' E 001°19'0 0.0
2014-Oct-27 00:33N 51°57' E 001°19'0 0.0
2014-Oct-26 23:33N 51°57' E 001°19'0 0.0
2014-Oct-26 22:33N 51°57' E 001°19'0 0.0
2014-Oct-26 21:33N 51°57' E 001°19'0 0.0
2014-Oct-26 20:30N 51°57' E 001°19'0 0.0
2014-Oct-26 19:33N 51°57' E 001°19'0 0.0
2014-Oct-26 18:33N 51°57' E 001°19'0 0.0
2014-Oct-26 17:33N 51°57' E 001°19'0 0.0
2014-Oct-26 16:33N 51°57' E 001°19'0 0.0
2014-Oct-26 15:33N 51°57' E 001°19'0 0.0
2014-Oct-26 14:33N 51°57' E 001°19'0 0.0
2014-Oct-26 13:33N 51°57' E 001°19'0 0.0
2014-Oct-26 12:33N 51°57' E 001°19'0 0.0
2014-Oct-26 11:33N 51°57' E 001°19'0 0.0
2014-Oct-26 10:34N 51°57' E 001°19'4 4.0
2014-Oct-26 09:33N 51°56' E 001°25'1010.0
2014-Oct-26 08:33N 51°51' E 001°40'7 6.8
2014-Oct-26 07:33N 51°48' E 001°49'1111.3
2014-Oct-26 06:34N 51°37' E 001°50'1111.0
2014-Oct-26 05:33N 51°27' E 001°59'1211.7
2014-Oct-26 04:34N 51°16' E 001°53'1615.6
2014-Oct-26 03:34N 51°03' E 001°39'1514.9
2014-Oct-26 02:33N 50°51' E 001°24'2813.9
2014-Oct-26 00:31N 50°30' E 000°56'9415.7
2014-Oct-25 18:33N 50°03' W 001°25'2217.8
2014-Oct-25 17:20N 49°57' W 001°57'43016.1
2014-Oct-24 14:33N 44°31' W 008°51'1717.1
2014-Oct-24 13:33N 44°16' W 009°02'35817.0
2014-Oct-23 16:31N 38°19' W 009°45'1717.8
2014-Oct-23 15:33N 38°02' W 009°40'1717.5
2014-Oct-23 14:33N 37°45' W 009°36'1717.3
2014-Oct-23 13:33N 37°28' W 009°32'1717.1
2014-Oct-23 12:33N 37°12' W 009°26'1717.2
2014-Oct-23 11:33N 36°55' W 009°20'1916.4
2014-Oct-23 10:25N 36°43' W 009°03'1517.0
2014-Oct-23 09:33N 36°38' W 008°46'1717.1
2014-Oct-23 08:33N 36°33' W 008°26'1717.2
2014-Oct-23 07:33N 36°27' W 008°05'1717.4
2014-Oct-23 06:33N 36°22' W 007°45'10717.4
2014-Oct-23 00:24N 35°57' W 005°35'1417.1
2014-Oct-22 23:34N 36°02' W 005°18'51117.5
2014-Oct-21 18:23N 37°35' E 005°09'1517.6
2014-Oct-21 17:33N 37°35' E 005°28'  

Dump ship's entire track history